GCRR/ACE METAR and TAF weather

Enter ICAO airport designator
Station Type Date Time Source
GCRR METAR 2022/06/30 14:00 UTC NOAA

GCRR 301400Z 35017KT 320V030 9999 FEW038 25/14 Q1017


Station Type Date Time Source
GCRR Decoded METAR 2022/06/30 14:00 UTC NOAA

Lanzarote / Aeropuerto, Spain (GCRR) 28-57N 013-36W 21M
Jun 30, 2022 - 10:00 AM EDT / 2022.06.30 1400 UTC
Wind: from the N (350 degrees) at 20 MPH (17 KT) (direction variable):0
Visibility: greater than 7 mile(s):0
Sky conditions: mostly clear
Temperature: 77 F (25 C)
Dew Point: 57 F (14 C)
Relative Humidity: 50%
Pressure (altimeter): 30.03 in. Hg (1017 hPa)
ob: GCRR 301400Z 35017KT 320V030 9999 FEW038 25/14 Q1017
cycle: 14

Station Type Date Time Source
GCRR TAF 2022/06/30 09:27 UTC NOAA

TAF GCRR 300800Z 3009/0109 02019KT 9999 SCT030 TX27/3014Z TN20/0106Z PROB30
TEMPO 3010/3018 02019G29KT

Example: see airport list